This is the latest recevied weather packets stored in our database for station/object WX5HOT. If no packets are shown the sender has not sent any weather packets the latest 10 day(s).
| Time | Temp. | Humidity | Pressure | Rain* | Wind** | Luminosity | Snow |
|---|---|---|---|---|---|---|---|
| 1777144307 | 19.44° C | 84% | 1061 hPa | 0 mm | - | 534 W/m² | - |
| 1777144003 | 18.89° C | 85% | 1061.2 hPa | 0 mm | - | 988 W/m² | - |
| 1777143699 | 18.89° C | 86% | 1060.9 hPa | 0 mm | - | 558 W/m² | - |
| 1777143396 | 18.89° C | 84% | 1061.2 hPa | 0 mm | - | 357 W/m² | - |
| 1777143092 | 18.33° C | 87% | 1061.1 hPa | 0 mm | - | 579 W/m² | - |
| 1777142787 | 18.33° C | 85% | 1061.2 hPa | 0 mm | - | 445 W/m² | - |
| 1777142485 | 17.78° C | 87% | 1061.2 hPa | 0 mm | - | 463 W/m² | - |
| 1777142184 | 17.78° C | 90% | 1061 hPa | 0 mm | - | 381 W/m² | - |
| 1777141881 | 17.22° C | 89% | 1061.3 hPa | 0 mm | - | 472 W/m² | - |
| 1777141578 | 17.78° C | 87% | 1061.3 hPa | 0 mm | - | 440 W/m² | - |
| 1777141277 | 18.33° C | 88% | 1061.2 hPa | 0 mm | - | 384 W/m² | - |
| 1777140973 | 17.22° C | 90% | 1061.5 hPa | 0 mm | - | 528 W/m² | - |
| 1777140670 | 17.78° C | 88% | 1061.6 hPa | 0 mm | - | 405 W/m² | - |
| 1777140366 | 17.78° C | 88% | 1061.5 hPa | 0 mm | - | 370 W/m² | - |
| 1777140064 | 17.78° C | 87% | 1061.5 hPa | 0 mm | - | 310 W/m² | - |
| 1777139761 | 17.22° C | 89% | 1061.6 hPa | 0 mm | - | 432 W/m² | - |
| 1777139456 | 17.22° C | 90% | 1061.7 hPa | 0 mm | - | 377 W/m² | - |
| 1777139152 | 16.67° C | 89% | 1061.7 hPa | 0 mm | - | 366 W/m² | - |
| 1777138850 | 17.22° C | 88% | 1061.6 hPa | 0 mm | - | 369 W/m² | - |
| 1777138545 | 16.67° C | 88% | 1061.8 hPa | 0 mm | - | 501 W/m² | - |
| 1777138241 | 17.22° C | 87% | 1061.7 hPa | 0 mm | - | 404 W/m² | - |
| 1777137938 | 17.22° C | 89% | 1061.8 hPa | 0 mm | - | 375 W/m² | - |
| 1777137634 | 16.67° C | 89% | 1061.7 hPa | 0 mm | - | 451 W/m² | - |
| 1777137332 | 17.22° C | 89% | 1062.1 hPa | 0 mm | - | 395 W/m² | - |
| 1777137028 | 17.22° C | 87% | 1061.7 hPa | 0 mm | - | 305 W/m² | - |
* Rain latest hour (hover to see other rain measurements)
** Current wind speed in m/s (hover to see current wind gust speed)